Time;durP1;ratioP1;P1;durP2;ratioP2;P2;SDS_P1;SDS_P2;PMS_P1;PMS_P2;Temp;Humidity;BMP_temperature;BMP_pressure;BME280_temperature;BME280_humidity;BME280_pressure;Samples;Min_cycle;Max_cycle;Signal;HPM_P1;HPM_P2
2023/07/16 00:04:07;;;;;;;5.18;4.68;;;20.40;80.90;;;;;;10203805;29;20242;-82
2023/07/16 00:09:09;;;;;;;9.20;4.50;;;20.70;80.50;;;;;;10191708;29;20254;-82
2023/07/16 00:14:12;;;;;;;5.40;4.75;;;20.70;82.40;;;;;;10212462;29;20246;-82
2023/07/16 00:19:14;;;;;;;6.00;5.20;;;20.70;80.20;;;;;;10195289;29;20667;-82
2023/07/16 00:24:17;;;;;;;5.53;4.85;;;20.60;78.50;;;;;;10195266;29;20254;-82
2023/07/16 00:29:19;;;;;;;5.28;4.57;;;20.70;77.30;;;;;;10182499;29;20238;-82
2023/07/16 00:34:22;;;;;;;5.60;4.93;;;20.80;78.00;;;;;;10211418;29;20665;-82
2023/07/16 00:39:24;;;;;;;7.88;5.40;;;20.90;75.10;;;;;;10194314;29;20325;-82
2023/07/16 00:44:27;;;;;;;7.53;5.00;;;20.80;75.30;;;;;;10193317;29;20321;-82
2023/07/16 00:49:31;;;;;;;3.72;3.42;;;20.80;76.60;;;;;;10194519;29;20764;-82
2023/07/16 00:54:35;;;;;;;5.45;4.65;;;21.10;83.50;;;;;;10194374;29;20877;-82
2023/07/16 00:59:37;;;;;;;7.10;3.67;;;21.20;80.20;;;;;;10193481;29;20270;-82
2023/07/16 01:04:40;;;;;;;9.95;5.32;;;21.20;80.70;;;;;;10211466;29;20243;-82
2023/07/16 01:09:44;;;;;;;6.82;4.88;;;21.30;73.20;;;;;;10209223;29;20246;-82
2023/07/16 01:14:46;;;;;;;4.30;2.83;;;21.10;74.70;;;;;;10194012;29;20311;-82
2023/07/16 01:19:49;;;;;;;4.28;3.88;;;21.30;80.80;;;;;;10153081;29;20329;-82
2023/07/16 01:25:25;;;;;;;5.20;4.32;;;21.30;78.50;;;;;;10189711;29;20243;-82
2023/07/16 01:30:29;;;;;;;8.27;4.10;;;21.20;78.80;;;;;;10172217;29;20693;-82
2023/07/16 01:35:32;;;;;;;6.63;4.97;;;21.30;78.30;;;;;;10191104;29;20251;-82
2023/07/16 01:40:35;;;;;;;4.85;4.40;;;21.30;76.60;;;;;;10163090;29;20290;-82
2023/07/16 01:45:37;;;;;;;7.30;4.60;;;21.30;77.30;;;;;;10191724;29;20239;-82
2023/07/16 01:50:40;;;;;;;3.72;3.17;;;21.30;79.80;;;;;;10191690;29;20247;-82
2023/07/16 01:55:43;;;;;;;2.25;2.05;;;21.40;80.00;;;;;;10153611;29;20211;-82
2023/07/16 02:00:45;;;;;;;3.88;3.17;;;21.50;83.60;;;;;;10168333;29;20321;-82
2023/07/16 02:05:48;;;;;;;4.93;4.20;;;21.70;80.90;;;;;;10188571;29;20246;-82
2023/07/16 02:10:51;;;;;;;3.00;2.55;;;21.70;78.10;;;;;;10190517;29;20270;-82
2023/07/16 02:15:53;;;;;;;7.05;4.35;;;21.80;80.80;;;;;;10206739;29;20297;-82
2023/07/16 02:20:56;;;;;;;3.60;3.25;;;21.90;77.70;;;;;;10189635;29;20303;-82
2023/07/16 02:26:00;;;;;;;3.50;2.92;;;22.10;78.00;;;;;;10205630;29;20267;-82
2023/07/16 02:31:03;;;;;;;4.15;3.75;;;22.10;77.70;;;;;;10190317;29;20255;-82
2023/07/16 02:36:06;;;;;;;2.72;2.47;;;22.10;77.20;;;;;;10179395;29;20230;-82
2023/07/16 02:41:08;;;;;;;4.68;4.18;;;22.20;77.20;;;;;;10206599;29;20258;-82
2023/07/16 02:46:11;;;;;;;3.53;2.72;;;22.50;74.90;;;;;;10174007;29;20310;-82
2023/07/16 02:51:13;;;;;;;2.65;2.25;;;22.60;75.10;;;;;;10189197;29;20617;-82
2023/07/16 02:56:16;;;;;;;4.95;3.58;;;22.70;74.50;;;;;;10162810;29;20247;-82
2023/07/16 03:01:19;;;;;;;5.57;4.78;;;23.00;72.80;;;;;;10150833;29;20385;-82
2023/07/16 03:06:22;;;;;;;4.65;4.25;;;22.90;71.10;;;;;;10160997;29;20250;-82
2023/07/16 03:11:26;;;;;;;5.13;4.43;;;22.70;72.50;;;;;;10167641;29;20239;-82
2023/07/16 03:16:28;;;;;;;4.43;4.10;;;22.50;74.90;;;;;;10164333;29;20270;-82
2023/07/16 03:21:31;;;;;;;11.38;4.88;;;22.40;76.10;;;;;;10186289;29;20270;-82
2023/07/16 03:26:33;;;;;;;8.32;5.40;;;22.30;77.80;;;;;;10177833;29;20295;-82
2023/07/16 03:31:36;;;;;;;2.38;2.17;;;22.30;79.20;;;;;;10153986;29;20313;-82
2023/07/16 03:36:40;;;;;;;5.65;4.88;;;22.40;80.20;;;;;;10206197;29;20250;-82
2023/07/16 03:41:43;;;;;;;5.07;4.63;;;22.90;76.90;;;;;;10188623;29;20258;-82
2023/07/16 03:46:46;;;;;;;3.75;3.45;;;22.80;75.60;;;;;;10177131;29;20318;-82
2023/07/16 03:51:49;;;;;;;6.47;4.35;;;22.60;76.80;;;;;;10160115;29;20231;-82
2023/07/16 03:56:52;;;;;;;5.93;3.88;;;22.50;78.60;;;;;;10185563;29;20294;-82
2023/07/16 04:01:54;;;;;;;9.82;5.20;;;22.40;79.50;;;;;;10175173;29;20283;-82
2023/07/16 04:06:57;;;;;;;8.70;4.82;;;22.30;80.80;;;;;;10184545;29;20268;-82
2023/07/16 04:11:59;;;;;;;3.38;2.88;;;22.40;81.00;;;;;;10212873;29;20791;-82
2023/07/16 04:17:02;;;;;;;2.63;2.42;;;22.60;79.80;;;;;;10212017;29;20254;-82
2023/07/16 04:22:05;;;;;;;2.60;2.40;;;23.00;77.10;;;;;;10212790;29;20270;-82
2023/07/16 04:27:08;;;;;;;2.47;2.28;;;23.50;74.00;;;;;;10196183;29;20681;-82
2023/07/16 04:32:10;;;;;;;2.60;2.40;;;24.00;69.50;;;;;;10209953;29;20317;-82
2023/07/16 04:37:13;;;;;;;2.40;2.00;;;24.50;66.00;;;;;;10187425;29;20664;-82
2023/07/16 04:42:16;;;;;;;5.75;2.58;;;25.00;61.10;;;;;;10172908;29;20267;-82
2023/07/16 04:47:19;;;;;;;3.22;2.03;;;25.40;57.40;;;;;;10199055;29;20254;-82
2023/07/16 04:52:22;;;;;;;4.53;4.05;;;25.60;54.50;;;;;;10194137;29;20313;-82
2023/07/16 04:57:24;;;;;;;3.70;3.13;;;25.70;53.00;;;;;;10209393;29;20274;-82
2023/07/16 05:02:27;;;;;;;6.53;3.25;;;25.70;52.60;;;;;;10201751;29;20637;-82
2023/07/16 05:07:30;;;;;;;2.38;2.10;;;25.60;52.50;;;;;;10198484;29;20246;-82
2023/07/16 05:12:33;;;;;;;6.80;3.28;;;25.60;52.30;;;;;;10194058;29;20239;-82
2023/07/16 05:17:36;;;;;;;3.08;2.60;;;25.70;51.80;;;;;;10209965;29;20776;-82
2023/07/16 05:22:38;;;;;;;4.30;3.00;;;25.70;51.30;;;;;;10210449;29;20287;-82
2023/07/16 05:27:41;;;;;;;3.92;2.13;;;25.90;50.40;;;;;;10209559;29;20255;-82
2023/07/16 05:32:44;;;;;;;2.72;2.53;;;26.00;50.00;;;;;;10208738;29;20321;-82
2023/07/16 05:37:46;;;;;;;3.17;2.90;;;26.00;50.90;;;;;;10192402;29;20242;-82
2023/07/16 05:42:49;;;;;;;4.60;3.35;;;26.10;51.00;;;;;;10182652;29;20259;-82
2023/07/16 05:47:51;;;;;;;3.08;2.80;;;26.20;49.50;;;;;;10170530;29;20243;-82
2023/07/16 05:52:54;;;;;;;2.55;2.35;;;26.30;49.70;;;;;;10169879;29;20306;-81
2023/07/16 05:57:56;;;;;;;4.22;2.33;;;26.40;46.80;;;;;;10187904;29;20798;-82
2023/07/16 06:02:59;;;;;;;3.20;2.90;;;26.60;47.30;;;;;;10190296;29;20262;-82
2023/07/16 06:08:01;;;;;;;3.17;2.90;;;26.70;46.50;;;;;;10168454;29;20255;-82
2023/07/16 06:13:04;;;;;;;2.95;2.75;;;26.60;47.90;;;;;;10187693;29;20309;-82
2023/07/16 06:18:06;;;;;;;3.38;2.17;;;26.60;45.30;;;;;;10186989;29;20243;-81
2023/07/16 06:23:11;;;;;;;3.38;3.08;;;26.70;45.10;;;;;;10188772;29;20266;-82
2023/07/16 06:28:14;;;;;;;2.78;2.58;;;26.70;45.60;;;;;;10172359;29;20230;-82
2023/07/16 06:33:20;;;;;;;4.43;2.90;;;26.70;45.90;;;;;;10192930;29;20242;-82
2023/07/16 06:38:26;;;;;;;3.30;2.50;;;26.70;46.70;;;;;;10188239;29;20267;-82
2023/07/16 06:43:31;;;;;;;2.83;2.33;;;26.70;44.70;;;;;;10182998;29;20278;-81
2023/07/16 06:48:34;;;;;;;3.13;2.83;;;26.70;46.00;;;;;;10155628;29;20239;-81
2023/07/16 06:53:37;;;;;;;3.28;2.97;;;26.80;45.70;;;;;;10150432;29;20771;-82
2023/07/16 06:58:40;;;;;;;2.80;2.60;;;26.80;43.80;;;;;;10168592;29;20246;-82
2023/07/16 07:03:42;;;;;;;2.63;2.38;;;26.80;43.20;;;;;;10175211;29;20670;-82
2023/07/16 07:08:45;;;;;;;2.25;2.05;;;26.90;42.00;;;;;;10205646;29;20251;-82
2023/07/16 07:13:47;;;;;;;2.70;2.50;;;26.90;42.60;;;;;;10206087;29;20246;-82
2023/07/16 07:18:50;;;;;;;2.38;2.17;;;26.80;42.20;;;;;;10202306;29;20243;-82
2023/07/16 07:23:52;;;;;;;2.58;2.38;;;26.80;42.50;;;;;;10173331;29;20266;-82
2023/07/16 07:28:55;;;;;;;2.70;2.50;;;26.80;41.20;;;;;;10206001;29;20267;-82
2023/07/16 07:33:58;;;;;;;3.65;3.35;;;26.80;41.80;;;;;;10203061;29;20263;-82
2023/07/16 07:39:01;;;;;;;5.03;2.85;;;26.80;41.20;;;;;;10205199;29;20282;-82
2023/07/16 07:44:03;;;;;;;2.85;2.65;;;27.00;40.70;;;;;;10173621;29;20270;-82
2023/07/16 07:49:06;;;;;;;3.30;3.00;;;27.10;40.20;;;;;;10197350;29;20242;-82
2023/07/16 07:54:08;;;;;;;3.05;2.50;;;27.30;39.80;;;;;;10204258;29;20242;-83
2023/07/16 07:59:11;;;;;;;2.33;2.13;;;27.50;40.40;;;;;;10166934;29;20597;-82
2023/07/16 08:04:13;;;;;;;4.15;2.80;;;27.50;39.00;;;;;;10180324;29;20729;-85
2023/07/16 08:09:17;;;;;;;2.72;2.53;;;27.50;38.90;;;;;;10206062;29;20680;-81
2023/07/16 08:14:19;;;;;;;4.70;3.00;;;27.40;39.00;;;;;;10205943;29;20271;-83
2023/07/16 08:19:22;;;;;;;4.05;2.80;;;27.20;38.10;;;;;;10205605;29;20306;-83
2023/07/16 08:24:25;;;;;;;4.20;3.08;;;27.00;39.90;;;;;;10205462;29;20693;-84
2023/07/16 08:29:28;;;;;;;3.28;3.03;;;26.80;42.10;;;;;;10204358;29;20641;-86
2023/07/16 08:34:30;;;;;;;3.00;2.65;;;26.70;40.60;;;;;;10211869;29;20267;-86
2023/07/16 08:39:33;;;;;;;3.20;2.67;;;26.70;40.20;;;;;;10195332;29;20708;-83
2023/07/16 08:44:37;;;;;;;3.17;2.88;;;26.50;40.70;;;;;;10206415;29;20267;-84
2023/07/16 08:49:40;;;;;;;1.25;1.15;;;26.50;42.10;;;;;;9841636;29;9999906;-85
2023/07/16 08:54:43;;;;;;;2.67;2.45;;;26.30;47.80;;;;;;10188930;29;20242;-85
2023/07/16 08:59:48;;;;;;;2.72;2.53;;;26.20;43.10;;;;;;10151269;29;20255;-85
2023/07/16 09:04:51;;;;;;;3.20;3.00;;;26.20;44.30;;;;;;10206455;29;20317;-84
2023/07/16 09:10:00;;;;;;;3.33;3.13;;;26.10;45.90;;;;;;10207270;29;20654;-85
2023/07/16 09:15:03;;;;;;;2.67;2.47;;;26.00;44.20;;;;;;10186841;29;21066;-86
2023/07/16 09:20:06;;;;;;;3.00;2.70;;;25.80;46.80;;;;;;10179414;29;20250;-86
2023/07/16 09:25:10;;;;;;;3.03;2.72;;;25.80;52.20;;;;;;10202545;29;20251;-86
2023/07/16 09:30:16;;;;;;;3.00;2.80;;;25.80;48.60;;;;;;10165965;29;20243;-86
2023/07/16 09:35:19;;;;;;;3.15;2.15;;;25.70;48.00;;;;;;10192933;29;20294;-86
2023/07/16 09:40:22;;;;;;;2.97;2.78;;;25.80;51.60;;;;;;10184481;29;20351;-85
2023/07/16 09:45:24;;;;;;;2.95;2.75;;;25.80;48.10;;;;;;10199841;29;20310;-85
2023/07/16 09:50:33;;;;;;;2.08;1.95;;;26.00;50.00;;;;;;10185662;29;20267;-84
2023/07/16 09:55:37;;;;;;;2.90;2.58;;;26.20;62.80;;;;;;10173797;29;20337;-84
2023/07/16 10:00:41;;;;;;;2.72;2.53;;;26.20;48.80;;;;;;10188952;29;20266;-84
2023/07/16 10:05:44;;;;;;;3.00;2.70;;;26.50;47.40;;;;;;10188163;29;20317;-85
2023/07/16 10:10:55;;;;;;;2.80;2.60;;;26.70;54.90;;;;;;10204358;29;20305;-84
2023/07/16 10:15:59;;;;;;;2.80;2.50;;;26.80;45.30;;;;;;10175173;29;20624;-84
2023/07/16 10:21:07;;;;;;;1.58;1.48;;;26.80;52.80;;;;;;10180031;23;20288;-89
2023/07/16 10:26:14;;;;;;;2.88;2.67;;;26.80;48.70;;;;;;10110346;29;20265;-88
2023/07/16 10:31:23;;;;;;;3.22;1.85;;;26.80;48.20;;;;;;10132570;29;20245;-89
2023/07/16 10:36:29;;;;;;;1.90;1.70;;;26.90;58.40;;;;;;10134031;29;20217;-89
2023/07/16 10:41:34;;;;;;;2.05;1.63;;;26.80;56.90;;;;;;10112204;29;20305;-89
2023/07/16 10:46:37;;;;;;;1.65;1.55;;;26.80;58.90;;;;;;10132292;29;20216;-89
2023/07/16 10:51:39;;;;;;;1.67;1.58;;;26.70;54.40;;;;;;10114925;29;20220;-89
2023/07/16 10:56:43;;;;;;;2.00;1.80;;;26.60;55.50;;;;;;10132193;29;20260;-88
2023/07/16 11:01:46;;;;;;;1.95;1.83;;;26.70;57.90;;;;;;10125952;29;20722;-89
2023/07/16 11:06:50;;;;;;;4.45;2.38;;;26.80;54.30;;;;;;10120259;29;20252;-89
2023/07/16 11:11:52;;;;;;;3.17;2.28;;;26.90;52.30;;;;;;10127493;29;20243;-89
2023/07/16 11:17:08;;;;;;;2.25;2.08;;;27.10;51.80;;;;;;10098651;29;20252;-87
2023/07/16 11:22:10;;;;;;;2.15;1.95;;;27.30;52.00;;;;;;10100676;29;20259;-89
2023/07/16 11:27:18;;;;;;;2.38;2.17;;;27.40;48.00;;;;;;10125384;29;20295;-89
2023/07/16 11:32:36;;;;;;;2.30;1.75;;;27.60;49.20;;;;;;10118444;29;20248;-88
2023/07/16 11:37:39;;;;;;;2.78;2.20;;;28.00;47.30;;;;;;10100876;29;20264;-89
2023/07/16 11:42:42;;;;;;;2.20;1.90;;;28.10;44.40;;;;;;10067845;29;20319;-88
2023/07/16 11:47:45;;;;;;;4.32;2.50;;;28.00;43.60;;;;;;10057635;29;20253;-89
2023/07/16 11:52:55;;;;;;;1.77;1.50;;;27.90;42.80;;;;;;10053735;29;20249;-88
2023/07/16 11:57:59;;;;;;;1.63;1.52;;;28.00;45.50;;;;;;10078887;29;20300;-88
2023/07/16 12:03:02;;;;;;;2.92;2.30;;;28.10;43.50;;;;;;10051580;29;20294;-88
2023/07/16 12:08:05;;;;;;;2.13;1.92;;;28.30;42.50;;;;;;10064839;29;20242;-88
2023/07/16 12:13:07;;;;;;;2.35;1.98;;;28.20;40.00;;;;;;10057470;29;20253;-88
2023/07/16 12:18:10;;;;;;;2.28;2.08;;;28.30;39.70;;;;;;10075791;29;20245;-88
2023/07/16 12:23:12;;;;;;;1.92;1.73;;;28.20;40.30;;;;;;10056947;29;20269;-88
2023/07/16 12:28:15;;;;;;;2.42;2.22;;;28.00;40.20;;;;;;10068164;29;20245;-89
2023/07/16 12:33:17;;;;;;;2.45;2.17;;;28.00;40.50;;;;;;10078611;29;20704;-88
2023/07/16 12:38:20;;;;;;;2.03;1.80;;;28.00;40.50;;;;;;10094700;29;20284;-88
2023/07/16 12:43:23;;;;;;;1.77;1.67;;;28.00;39.90;;;;;;10063041;29;20293;-88
2023/07/16 12:48:25;;;;;;;2.40;2.20;;;28.10;40.00;;;;;;10056768;29;20250;-88
2023/07/16 12:53:28;;;;;;;2.42;2.22;;;28.30;41.50;;;;;;10056307;29;20312;-88
2023/07/16 12:58:31;;;;;;;1.95;1.77;;;28.20;38.20;;;;;;10056708;29;20245;-89
2023/07/16 13:03:33;;;;;;;1.90;1.80;;;28.20;38.70;;;;;;10082026;29;20320;-89
2023/07/16 13:08:36;;;;;;;2.75;2.25;;;28.00;40.40;;;;;;10071666;29;20245;-88
2023/07/16 13:13:38;;;;;;;2.20;2.00;;;28.10;38.80;;;;;;10055036;29;20686;-88
2023/07/16 13:18:41;;;;;;;3.45;1.83;;;28.10;38.50;;;;;;10088466;29;20324;-87
2023/07/16 13:23:44;;;;;;;2.60;2.35;;;28.10;39.70;;;;;;10081967;29;20273;-88
2023/07/16 13:28:46;;;;;;;2.72;2.40;;;28.10;38.70;;;;;;10055656;29;20686;-88
2023/07/16 13:33:49;;;;;;;2.30;2.10;;;28.10;37.70;;;;;;10054135;29;20320;-87
2023/07/16 13:38:51;;;;;;;2.30;2.10;;;28.00;37.50;;;;;;10087645;29;20249;-89
2023/07/16 13:43:54;;;;;;;2.17;1.92;;;28.00;38.20;;;;;;10074243;29;20268;-88
2023/07/16 13:48:57;;;;;;;3.72;2.20;;;28.10;37.90;;;;;;10120477;29;20251;-88
2023/07/16 13:54:00;;;;;;;4.07;1.90;;;28.20;35.30;;;;;;10115009;29;20251;-88
2023/07/16 13:59:03;;;;;;;2.33;2.05;;;28.30;36.00;;;;;;10131522;29;20311;-88
2023/07/16 14:04:06;;;;;;;3.22;2.22;;;28.50;35.60;;;;;;10065082;29;20265;-88
2023/07/16 14:09:09;;;;;;;2.67;2.30;;;28.40;34.40;;;;;;10090658;29;20253;-87
2023/07/16 14:14:12;;;;;;;3.55;2.35;;;28.20;34.80;;;;;;10078667;29;20694;-89
2023/07/16 14:19:15;;;;;;;3.60;2.13;;;28.10;34.20;;;;;;10056390;29;20643;-88
2023/07/16 14:24:17;;;;;;;2.15;1.95;;;28.20;35.10;;;;;;10074027;29;20257;-88
2023/07/16 14:29:20;;;;;;;2.50;2.30;;;28.20;34.00;;;;;;10052220;29;20681;-89
2023/07/16 14:40:50;;;;;;;2.83;2.08;;;28.20;34.40;;;;;;10052465;29;20614;-89
2023/07/16 14:45:53;;;;;;;2.22;2.03;;;28.00;34.80;;;;;;10052056;29;20820;-89
2023/07/16 14:50:56;;;;;;;2.53;2.20;;;27.90;35.40;;;;;;10053182;29;20242;-88
2023/07/16 14:55:58;;;;;;;2.78;2.28;;;28.00;36.00;;;;;;10057502;29;20282;-89
2023/07/16 15:01:07;;;;;;;3.75;2.78;;;28.30;34.60;;;;;;10073896;29;20221;-89
2023/07/16 15:06:10;;;;;;;2.20;2.00;;;28.60;36.10;;;;;;10089168;29;20304;-89
2023/07/16 15:11:13;;;;;;;2.42;2.22;;;28.40;33.60;;;;;;10088076;29;20233;-90
2023/07/16 15:16:15;;;;;;;1.60;1.50;;;28.20;34.00;;;;;;10052571;29;20249;-89
2023/07/16 15:21:18;;;;;;;2.35;2.15;;;28.30;34.00;;;;;;10050827;29;20328;-89
2023/07/16 15:26:21;;;;;;;2.92;2.25;;;28.40;33.30;;;;;;10065602;29;20317;-89
2023/07/16 15:31:27;;;;;;;2.53;2.33;;;28.20;33.50;;;;;;10062464;29;20253;-89
2023/07/16 15:36:30;;;;;;;2.42;2.20;;;27.90;33.90;;;;;;10058796;29;20248;-89
2023/07/16 15:41:33;;;;;;;2.10;1.95;;;28.10;33.70;;;;;;10068508;29;20331;-89
2023/07/16 15:46:35;;;;;;;2.15;2.05;;;27.90;33.20;;;;;;10069708;29;20245;-88
2023/07/16 15:51:40;;;;;;;2.15;1.95;;;27.90;33.00;;;;;;10060920;29;20274;-88
2023/07/16 15:56:43;;;;;;;2.80;2.50;;;28.00;33.30;;;;;;10110102;29;20237;-88
2023/07/16 16:01:46;;;;;;;2.75;2.35;;;28.00;32.80;;;;;;10111131;29;20652;-89
2023/07/16 16:06:49;;;;;;;3.60;2.45;;;27.90;32.50;;;;;;10110645;29;20249;-89
2023/07/16 16:11:52;;;;;;;2.38;2.17;;;28.00;29.20;;;;;;10080641;29;20327;-88
2023/07/16 16:16:55;;;;;;;2.65;2.05;;;28.20;31.80;;;;;;10057557;29;20237;-89
2023/07/16 16:22:08;;;;;;;4.30;2.53;;;28.20;31.20;;;;;;10078956;29;20290;-87
2023/07/16 16:27:11;;;;;;;2.30;2.10;;;28.20;32.70;;;;;;10078698;29;20258;-89
2023/07/16 16:32:14;;;;;;;2.65;2.45;;;28.20;31.10;;;;;;10050771;29;20257;-88
2023/07/16 16:37:17;;;;;;;2.70;1.90;;;28.10;28.40;;;;;;10056205;29;20315;-88
2023/07/16 16:42:19;;;;;;;2.97;1.88;;;28.00;27.70;;;;;;10057246;29;20261;-89
2023/07/16 16:47:21;;;;;;;2.42;1.90;;;28.10;25.20;;;;;;10068712;29;20302;-90
2023/07/16 16:52:24;;;;;;;2.35;2.05;;;28.10;30.00;;;;;;10092539;29;20249;-89
2023/07/16 16:57:27;;;;;;;2.17;1.98;;;28.10;30.90;;;;;;10055696;29;20241;-90
2023/07/16 17:02:30;;;;;;;2.78;2.10;;;28.00;27.20;;;;;;10055814;29;20256;-89
2023/07/16 17:07:33;;;;;;;3.33;2.67;;;27.90;30.50;;;;;;10083678;29;20249;-89
2023/07/16 17:12:36;;;;;;;2.05;1.95;;;28.00;27.00;;;;;;10075552;29;20256;-89
2023/07/16 17:17:41;;;;;;;2.97;2.50;;;28.00;30.00;;;;;;10054912;29;20701;-89
2023/07/16 17:22:44;;;;;;;2.58;2.20;;;27.80;27.70;;;;;;10038096;29;20285;-89
2023/07/16 17:27:48;;;;;;;2.90;2.60;;;27.80;28.20;;;;;;10037673;29;20301;-89
2023/07/16 17:32:50;;;;;;;3.55;2.42;;;27.70;28.10;;;;;;10056349;29;20701;-90
2023/07/16 17:37:54;;;;;;;3.35;2.28;;;27.60;23.90;;;;;;10076218;29;20706;-87
2023/07/16 17:42:57;;;;;;;2.45;1.90;;;27.50;21.00;;;;;;10088093;29;20267;-89
2023/07/16 17:47:59;;;;;;;6.45;2.15;;;27.40;17.70;;;;;;10100975;29;20718;-89
2023/07/16 17:53:03;;;;;;;4.28;2.50;;;27.40;17.60;;;;;;10083299;29;20253;-90
2023/07/16 17:58:05;;;;;;;5.93;2.63;;;27.30;17.40;;;;;;9743849;29;10001682;-88
2023/07/16 18:03:08;;;;;;;3.13;2.47;;;27.20;17.70;;;;;;10053344;29;20325;-90
2023/07/16 18:08:11;;;;;;;4.28;2.30;;;27.20;18.10;;;;;;10050369;29;20270;-87
2023/07/16 18:13:13;;;;;;;3.03;2.38;;;27.10;18.30;;;;;;10050805;29;20837;-88
2023/07/16 18:18:16;;;;;;;5.38;2.47;;;27.00;19.00;;;;;;10034449;29;20289;-89
2023/07/16 18:23:19;;;;;;;3.17;2.65;;;26.80;19.00;;;;;;10083904;29;20268;-89
2023/07/16 18:28:22;;;;;;;3.28;2.30;;;26.70;18.80;;;;;;10061018;29;20683;-89
2023/07/16 18:33:24;;;;;;;4.93;2.65;;;26.50;20.00;;;;;;10032781;29;20726;-90
2023/07/16 18:38:27;;;;;;;7.82;2.78;;;26.30;20.80;;;;;;10049153;29;20323;-89
2023/07/16 18:43:30;;;;;;;3.22;2.47;;;26.00;20.60;;;;;;10049173;29;20681;-88
2023/07/16 18:48:32;;;;;;;3.15;2.50;;;25.90;23.00;;;;;;10048674;29;20325;-89
2023/07/16 18:53:35;;;;;;;3.33;2.20;;;25.90;22.80;;;;;;10049191;29;20364;-88
2023/07/16 18:58:38;;;;;;;6.43;2.70;;;25.80;22.20;;;;;;10058640;29;20702;-89
2023/07/16 19:03:41;;;;;;;3.15;1.92;;;25.80;23.30;;;;;;10091895;29;20368;-89
2023/07/16 19:08:43;;;;;;;5.00;2.88;;;25.70;23.40;;;;;;10080483;29;20245;-88
2023/07/16 19:13:46;;;;;;;3.58;2.75;;;25.60;23.10;;;;;;10049379;29;20289;-89
2023/07/16 19:18:49;;;;;;;3.75;2.97;;;25.30;23.90;;;;;;10048665;29;20269;-89
2023/07/16 19:23:51;;;;;;;3.17;2.58;;;25.20;25.10;;;;;;10047361;29;20392;-88
2023/07/16 19:28:54;;;;;;;3.17;2.38;;;25.00;24.30;;;;;;10081380;29;20708;-90
2023/07/16 19:33:57;;;;;;;3.75;3.03;;;24.70;23.60;;;;;;10056202;29;20680;-90
2023/07/16 19:38:59;;;;;;;12.23;3.10;;;24.30;23.50;;;;;;10071921;29;20257;-89
2023/07/16 19:44:03;;;;;;;7.45;2.40;;;24.00;23.80;;;;;;10048464;29;20325;-89
2023/07/16 19:49:05;;;;;;;4.57;2.50;;;23.70;24.00;;;;;;10049105;29;20249;-88
2023/07/16 19:54:09;;;;;;;8.80;2.92;;;23.20;25.90;;;;;;10049917;29;20324;-89
2023/07/16 19:59:11;;;;;;;3.78;2.67;;;22.90;27.90;;;;;;10064952;29;20310;-88
2023/07/16 20:04:15;;;;;;;3.97;2.67;;;22.50;29.40;;;;;;10052272;29;20248;-89
2023/07/16 20:09:17;;;;;;;4.28;2.50;;;22.10;30.00;;;;;;10089216;29;20648;-88
2023/07/16 20:14:21;;;;;;;5.38;2.75;;;21.80;31.60;;;;;;10060894;29;20293;-88
2023/07/16 20:19:24;;;;;;;6.63;3.13;;;21.60;33.20;;;;;;10035621;29;20253;-89
2023/07/16 20:24:26;;;;;;;2.33;1.55;;;21.50;35.90;;;;;;10053881;29;20669;-88
2023/07/16 20:29:29;;;;;;;2.83;2.05;;;21.40;37.70;;;;;;10070206;29;20288;-89
2023/07/16 20:34:31;;;;;;;3.50;2.60;;;21.20;39.30;;;;;;10097013;29;20270;-89
2023/07/16 20:39:35;;;;;;;2.65;2.45;;;20.90;41.10;;;;;;10098953;29;20616;-89
2023/07/16 20:44:38;;;;;;;2.85;2.47;;;20.70;41.30;;;;;;10098491;29;20229;-89
2023/07/16 20:49:40;;;;;;;4.28;2.47;;;20.60;43.40;;;;;;10075634;29;20241;-89
2023/07/16 20:54:43;;;;;;;4.03;2.33;;;20.60;45.60;;;;;;10061018;29;20308;-89
2023/07/16 20:59:46;;;;;;;4.78;2.47;;;20.40;44.30;;;;;;10078242;29;20253;-88
2023/07/16 21:04:49;;;;;;;3.92;2.67;;;20.30;45.00;;;;;;10061611;29;20264;-89
2023/07/16 21:09:52;;;;;;;4.97;3.30;;;20.10;47.40;;;;;;10080137;29;20290;-90
2023/07/16 21:14:54;;;;;;;3.45;2.42;;;20.00;51.50;;;;;;10044510;29;20277;-90
2023/07/16 21:19:59;;;;;;;2.67;2.13;;;19.60;54.10;;;;;;10077231;29;20316;-91
2023/07/16 21:25:02;;;;;;;3.13;2.42;;;19.40;56.70;;;;;;10055780;29;20272;-90
2023/07/16 21:30:06;;;;;;;3.53;2.45;;;19.30;59.80;;;;;;10092588;29;20442;-90
2023/07/16 21:35:08;;;;;;;3.40;2.10;;;19.20;63.40;;;;;;10078277;29;20233;-90
2023/07/16 21:40:14;;;;;;;7.88;2.75;;;19.30;64.70;;;;;;10088948;29;20767;-91
2023/07/16 21:45:17;;;;;;;5.43;2.40;;;19.10;67.40;;;;;;10091750;29;20312;-90
2023/07/16 21:50:20;;;;;;;3.78;2.58;;;19.00;70.40;;;;;;10055257;29;20249;-90
2023/07/16 21:55:23;;;;;;;4.35;2.78;;;18.80;73.20;;;;;;10071014;29;20245;-91
2023/07/16 22:00:26;;;;;;;4.63;2.28;;;18.60;76.20;;;;;;10078388;29;20237;-91
2023/07/16 22:05:28;;;;;;;9.57;2.58;;;18.60;79.30;;;;;;10057571;29;20320;-91
2023/07/16 22:10:31;;;;;;;6.88;3.10;;;18.40;80.80;;;;;;10052820;29;20253;-90
2023/07/16 22:15:35;;;;;;;4.22;3.08;;;18.20;84.60;;;;;;10053113;29;20616;-91
2023/07/16 22:20:38;;;;;;;6.63;2.58;;;18.20;87.50;;;;;;10065987;29;20236;-90
2023/07/16 22:25:41;;;;;;;6.93;3.25;;;18.20;89.70;;;;;;10090571;29;20321;-90
2023/07/16 22:30:43;;;;;;;5.35;3.25;;;18.30;90.10;;;;;;10090018;29;20308;-90
2023/07/16 22:35:46;;;;;;;4.40;3.38;;;18.30;89.40;;;;;;10052517;29;20249;-91
2023/07/16 22:40:48;;;;;;;4.60;2.95;;;17.90;88.10;;;;;;10052153;29;20297;-91
2023/07/16 22:45:51;;;;;;;9.85;3.13;;;17.80;91.70;;;;;;10038934;29;20325;-90
2023/07/16 22:50:54;;;;;;;7.05;3.03;;;18.00;91.40;;;;;;10051175;29;20226;-90
2023/07/16 22:55:56;;;;;;;4.63;3.28;;;17.70;91.70;;;;;;10058584;29;20625;-91
2023/07/16 23:00:59;;;;;;;4.88;2.83;;;17.50;93.20;;;;;;10080390;29;20253;-91
2023/07/16 23:06:02;;;;;;;6.53;3.63;;;17.50;94.90;;;;;;10053839;29;20294;-91
2023/07/16 23:11:05;;;;;;;6.95;3.55;;;17.20;94.30;;;;;;10051208;29;20265;-91
2023/07/16 23:16:08;;;;;;;5.88;3.08;;;17.30;94.50;;;;;;10059070;29;20252;-91
2023/07/16 23:21:10;;;;;;;5.28;3.83;;;17.20;95.10;;;;;;10086807;29;20676;-91
2023/07/16 23:26:13;;;;;;;5.65;3.58;;;17.20;95.90;;;;;;10062332;29;20266;-91
2023/07/16 23:31:16;;;;;;;5.93;3.58;;;16.90;96.30;;;;;;10046332;29;20213;-91
2023/07/16 23:36:18;;;;;;;5.22;3.28;;;16.80;96.50;;;;;;10082658;29;20252;-91
2023/07/16 23:41:21;;;;;;;5.55;3.13;;;16.80;97.20;;;;;;10066194;29;20249;-92
2023/07/16 23:46:24;;;;;;;7.75;4.28;;;16.90;97.50;;;;;;10060987;29;20265;-92
2023/07/16 23:51:26;;;;;;;5.47;3.75;;;;;;;;;;10075052;29;20249;-92
2023/07/16 23:56:29;;;;;;;4.32;3.53;;;16.60;98.60;;;;;;10064374;29;20296;-91
